PUA2603 MMUN-MMMX
Flight info
| Callsign | PUA2603 |
|---|---|
| Flight time | 1h 57m |
| Altitude | 38000 |
| Route | UDGUV2A UDGUV UT78 MEDOS UT20 UBVOV UT101 ENAGA ENAGA3A |
| Aircraft | A339/H-SADE1E2E3GHIJ3J5M1P2RWXY/LB2D1 |
Departure
| Time | 2026-05-04 03:59 |
|---|---|
| Airport | Cancún International Airport (MMUN) |
Arrival
| Time | 2026-05-04 05:57 |
|---|---|
| Airport | Mexico City Benito Juárez International Airport (MMMX) |
| Time | Latitude | Longitude | Altitude | Speed | Heading |
|---|---|---|---|---|---|
| 2026-05-04 03:41 | 21.04647 | -86.88401 | 50 ft | 0 kts | 123° |
| 2026-05-04 03:52 | 21.04653 | -86.88410 | 50 ft | 2 kts | 124° |
| 2026-05-04 03:52 | 21.04662 | -86.88423 | 50 ft | 2 kts | 133° |
| 2026-05-04 03:52 | 21.04673 | -86.88433 | 50 ft | 2 kts | 149° |
| 2026-05-04 03:52 | 21.04686 | -86.88440 | 50 ft | 2 kts | 163° |
| 2026-05-04 03:53 | 21.04701 | -86.88443 | 51 ft | 2 kts | 177° |
| 2026-05-04 03:53 | 21.04716 | -86.88443 | 52 ft | 2 kts | 191° |
| 2026-05-04 03:53 | 21.04730 | -86.88438 | 52 ft | 2 kts | 205° |
| 2026-05-04 03:53 | 21.04737 | -86.88434 | 53 ft | 1 kts | 213° |
| 2026-05-04 03:54 | 21.04742 | -86.88430 | 53 ft | 3 kts | 211° |
| 2026-05-04 03:54 | 21.04747 | -86.88427 | 53 ft | 0 kts | 212° |
| 2026-05-04 03:55 | 21.04745 | -86.88429 | 53 ft | 0 kts | 212° |
| 2026-05-04 03:55 | 21.04724 | -86.88443 | 52 ft | 6 kts | 213° |
| 2026-05-04 03:56 | 21.04669 | -86.88480 | 49 ft | 12 kts | 213° |
| 2026-05-04 03:56 | 21.04598 | -86.88538 | 47 ft | 12 kts | 236° |
| 2026-05-04 03:56 | 21.04559 | -86.88583 | 46 ft | 7 kts | 214° |
| 2026-05-04 03:56 | 21.04502 | -86.88623 | 45 ft | 12 kts | 213° |
| 2026-05-04 03:57 | 21.04468 | -86.88679 | 45 ft | 7 kts | 292° |
| 2026-05-04 03:57 | 21.04499 | -86.88734 | 44 ft | 10 kts | 301° |
| 2026-05-04 03:57 | 21.04548 | -86.88815 | 44 ft | 15 kts | 303° |
| 2026-05-04 03:57 | 21.04614 | -86.88918 | 44 ft | 17 kts | 304° |
| 2026-05-04 03:58 | 21.04578 | -86.89052 | 44 ft | 11 kts | 218° |
| 2026-05-04 03:58 | 21.04513 | -86.89071 | 43 ft | 7 kts | 150° |
| 2026-05-04 03:58 | 21.04465 | -86.88995 | 42 ft | 20 kts | 117° |
| 2026-05-04 03:59 | 21.04289 | -86.88709 | 42 ft | 78 kts | 123° |
| 2026-05-04 03:59 | 21.03862 | -86.88030 | 33 ft | 137 kts | 124° |
| 2026-05-04 03:59 | 21.03258 | -86.87050 | 158 ft | 173 kts | 123° |
| 2026-05-04 03:59 | 21.02588 | -86.85983 | 710 ft | 174 kts | 123° |
| 2026-05-04 04:00 | 21.01931 | -86.84947 | 1481 ft | 165 kts | 128° |
| 2026-05-04 04:00 | 21.01001 | -86.84299 | 2066 ft | 170 kts | 168° |
| 2026-05-04 04:00 | 20.99781 | -86.84467 | 2439 ft | 190 kts | 201° |
| 2026-05-04 04:00 | 20.98560 | -86.85193 | 2816 ft | 209 kts | 212° |
| 2026-05-04 04:01 | 20.97277 | -86.86108 | 2973 ft | 241 kts | 213° |
| 2026-05-04 04:01 | 20.95775 | -86.87183 | 2970 ft | 266 kts | 212° |
| 2026-05-04 04:01 | 20.94262 | -86.88378 | 3151 ft | 279 kts | 227° |
| 2026-05-04 04:01 | 20.93383 | -86.90213 | 3950 ft | 281 kts | 258° |
| 2026-05-04 04:02 | 20.93100 | -86.92256 | 4870 ft | 277 kts | 263° |
| 2026-05-04 04:02 | 20.92851 | -86.94282 | 5655 ft | 279 kts | 263° |
| 2026-05-04 04:02 | 20.92582 | -86.96339 | 6387 ft | 282 kts | 263° |
| 2026-05-04 04:02 | 20.92297 | -86.98413 | 7148 ft | 283 kts | 262° |
| 2026-05-04 04:03 | 20.92008 | -87.00452 | 7865 ft | 285 kts | 263° |
| 2026-05-04 04:03 | 20.91705 | -87.02559 | 8600 ft | 286 kts | 263° |
| 2026-05-04 04:03 | 20.91404 | -87.04635 | 9272 ft | 287 kts | 263° |
| 2026-05-04 04:03 | 20.91100 | -87.06735 | 9939 ft | 290 kts | 263° |
| 2026-05-04 04:04 | 20.90789 | -87.08890 | 10500 ft | 297 kts | 263° |
| 2026-05-04 04:04 | 20.90471 | -87.11101 | 10785 ft | 313 kts | 263° |
| 2026-05-04 04:04 | 20.90129 | -87.13470 | 11122 ft | 328 kts | 262° |
| 2026-05-04 04:04 | 20.89776 | -87.15891 | 11705 ft | 333 kts | 263° |
| 2026-05-04 04:05 | 20.89422 | -87.18317 | 12377 ft | 335 kts | 262° |
| 2026-05-04 04:05 | 20.89061 | -87.20792 | 13034 ft | 337 kts | 263° |
| 2026-05-04 04:05 | 20.88702 | -87.23257 | 13648 ft | 340 kts | 262° |
| 2026-05-04 04:05 | 20.88342 | -87.25733 | 14246 ft | 343 kts | 263° |
| 2026-05-04 04:06 | 20.87973 | -87.28261 | 14893 ft | 344 kts | 262° |
| 2026-05-04 04:06 | 20.87601 | -87.30802 | 15546 ft | 346 kts | 262° |
| 2026-05-04 04:06 | 20.87233 | -87.33318 | 16149 ft | 348 kts | 262° |
| 2026-05-04 04:06 | 20.86857 | -87.35881 | 16780 ft | 349 kts | 262° |
| 2026-05-04 04:07 | 20.86479 | -87.38449 | 17422 ft | 350 kts | 262° |
| 2026-05-04 04:07 | 20.86104 | -87.40988 | 18013 ft | 352 kts | 263° |
| 2026-05-04 04:07 | 20.85720 | -87.43586 | 18558 ft | 356 kts | 263° |
| 2026-05-04 04:07 | 20.85335 | -87.46198 | 19074 ft | 360 kts | 263° |
| 2026-05-04 04:08 | 20.84939 | -87.48868 | 19647 ft | 362 kts | 264° |
| 2026-05-04 04:08 | 20.84547 | -87.51525 | 20155 ft | 366 kts | 264° |
| 2026-05-04 04:08 | 20.84150 | -87.54217 | 20646 ft | 369 kts | 265° |
| 2026-05-04 04:08 | 20.83747 | -87.56923 | 21132 ft | 373 kts | 265° |
| 2026-05-04 04:09 | 20.83342 | -87.59662 | 21638 ft | 375 kts | 265° |
| 2026-05-04 04:09 | 20.82932 | -87.62425 | 22117 ft | 378 kts | 266° |
| 2026-05-04 04:09 | 20.82519 | -87.65221 | 22565 ft | 381 kts | 265° |
| 2026-05-04 04:09 | 20.82109 | -87.67992 | 23008 ft | 385 kts | 265° |
| 2026-05-04 04:10 | 20.81687 | -87.70836 | 23520 ft | 386 kts | 265° |
| 2026-05-04 04:10 | 20.81276 | -87.73644 | 24036 ft | 387 kts | 265° |
| 2026-05-04 04:10 | 20.80961 | -87.76527 | 24530 ft | 387 kts | 269° |
| 2026-05-04 04:10 | 20.80806 | -87.79372 | 24984 ft | 388 kts | 271° |
| 2026-05-04 04:11 | 20.80809 | -87.82278 | 25282 ft | 394 kts | 274° |
| 2026-05-04 04:11 | 20.80869 | -87.85194 | 25685 ft | 397 kts | 274° |
| 2026-05-04 04:11 | 20.80936 | -87.88146 | 26135 ft | 398 kts | 273° |
| 2026-05-04 04:11 | 20.81003 | -87.91079 | 26586 ft | 399 kts | 273° |
| 2026-05-04 04:12 | 20.81068 | -87.94066 | 27044 ft | 400 kts | 273° |
| 2026-05-04 04:12 | 20.81132 | -87.97015 | 27497 ft | 401 kts | 272° |
| 2026-05-04 04:12 | 20.81197 | -87.99999 | 27908 ft | 402 kts | 272° |
| 2026-05-04 04:12 | 20.81260 | -88.03013 | 28287 ft | 404 kts | 272° |
| 2026-05-04 04:13 | 20.81323 | -88.05975 | 28700 ft | 405 kts | 272° |
| 2026-05-04 04:13 | 20.81383 | -88.08980 | 29114 ft | 407 kts | 271° |
| 2026-05-04 04:13 | 20.81446 | -88.12039 | 29471 ft | 409 kts | 272° |
| 2026-05-04 04:13 | 20.81505 | -88.15074 | 29802 ft | 412 kts | 272° |
| 2026-05-04 04:14 | 20.81566 | -88.18143 | 30179 ft | 414 kts | 272° |
| 2026-05-04 04:14 | 20.81627 | -88.21203 | 30534 ft | 416 kts | 272° |
| 2026-05-04 04:14 | 20.81689 | -88.24277 | 30837 ft | 420 kts | 272° |
| 2026-05-04 04:14 | 20.81751 | -88.27439 | 31165 ft | 422 kts | 272° |
| 2026-05-04 04:15 | 20.81811 | -88.30564 | 31472 ft | 425 kts | 272° |
| 2026-05-04 04:15 | 20.81870 | -88.33718 | 31781 ft | 428 kts | 272° |
| 2026-05-04 04:15 | 20.81929 | -88.36900 | 32137 ft | 429 kts | 272° |
| 2026-05-04 04:15 | 20.81989 | -88.40099 | 32485 ft | 431 kts | 272° |
| 2026-05-04 04:16 | 20.82049 | -88.43277 | 32886 ft | 430 kts | 272° |
| 2026-05-04 04:16 | 20.82108 | -88.46458 | 33349 ft | 429 kts | 272° |
| 2026-05-04 04:16 | 20.82170 | -88.49631 | 33820 ft | 428 kts | 272° |
| 2026-05-04 04:16 | 20.82230 | -88.52792 | 34336 ft | 426 kts | 272° |
| 2026-05-04 04:17 | 20.82288 | -88.55921 | 34833 ft | 423 kts | 271° |
| 2026-05-04 04:17 | 20.82345 | -88.59073 | 35333 ft | 420 kts | 271° |
| 2026-05-04 04:17 | 20.82400 | -88.62190 | 35730 ft | 420 kts | 270° |
| 2026-05-04 04:17 | 20.82454 | -88.65269 | 36095 ft | 419 kts | 270° |
| 2026-05-04 04:18 | 20.82507 | -88.68372 | 36513 ft | 417 kts | 270° |
| 2026-05-04 04:18 | 20.82559 | -88.71460 | 36829 ft | 418 kts | 270° |
| 2026-05-04 04:18 | 20.82612 | -88.74580 | 37073 ft | 419 kts | 269° |
| 2026-05-04 04:18 | 20.82663 | -88.77689 | 37322 ft | 421 kts | 269° |
| 2026-05-04 04:19 | 20.82713 | -88.80826 | 37570 ft | 422 kts | 269° |
| 2026-05-04 04:19 | 20.82763 | -88.83948 | 37843 ft | 422 kts | 269° |
| 2026-05-04 04:19 | 20.82815 | -88.87091 | 37969 ft | 424 kts | 269° |
| 2026-05-04 04:19 | 20.82865 | -88.90208 | 37970 ft | 424 kts | 269° |
| 2026-05-04 04:20 | 20.82960 | -88.96479 | 37970 ft | 423 kts | 269° |
| 2026-05-04 04:20 | 20.83058 | -89.02792 | 37972 ft | 424 kts | 269° |
| 2026-05-04 04:21 | 20.83153 | -89.09051 | 37976 ft | 424 kts | 269° |
| 2026-05-04 04:21 | 20.83245 | -89.15345 | 37976 ft | 425 kts | 269° |
| 2026-05-04 04:22 | 20.83335 | -89.21631 | 37980 ft | 424 kts | 269° |
| 2026-05-04 04:22 | 20.83342 | -89.27918 | 37980 ft | 422 kts | 268° |
| 2026-05-04 04:23 | 20.83307 | -89.34167 | 37984 ft | 422 kts | 269° |
| 2026-05-04 04:23 | 20.83274 | -89.40402 | 37986 ft | 422 kts | 268° |
| 2026-05-04 04:24 | 20.83245 | -89.46652 | 37991 ft | 421 kts | 268° |
| 2026-05-04 04:24 | 20.83217 | -89.52892 | 37988 ft | 421 kts | 268° |
| 2026-05-04 04:25 | 20.83184 | -89.59108 | 37994 ft | 422 kts | 268° |
| 2026-05-04 04:25 | 20.83148 | -89.65345 | 37995 ft | 422 kts | 268° |
| 2026-05-04 04:26 | 20.83109 | -89.71638 | 37996 ft | 422 kts | 268° |
| 2026-05-04 04:26 | 20.83068 | -89.77863 | 37997 ft | 421 kts | 268° |
| 2026-05-04 04:27 | 20.83026 | -89.84134 | 38000 ft | 422 kts | 268° |
| 2026-05-04 04:27 | 20.82986 | -89.90394 | 37993 ft | 420 kts | 268° |
| 2026-05-04 04:28 | 20.82939 | -89.96659 | 37999 ft | 421 kts | 268° |
| 2026-05-04 04:28 | 20.82891 | -90.02911 | 37996 ft | 421 kts | 268° |
| 2026-05-04 04:29 | 20.82838 | -90.09208 | 37993 ft | 421 kts | 268° |
| 2026-05-04 04:29 | 20.82740 | -90.15459 | 37994 ft | 422 kts | 268° |
| 2026-05-04 04:30 | 20.82627 | -90.21713 | 37994 ft | 423 kts | 268° |
| 2026-05-04 04:30 | 20.82517 | -90.27997 | 37991 ft | 423 kts | 268° |
| 2026-05-04 04:31 | 20.82409 | -90.34246 | 37992 ft | 423 kts | 268° |
| 2026-05-04 04:31 | 20.82296 | -90.40497 | 37991 ft | 424 kts | 268° |
| 2026-05-04 04:32 | 20.82184 | -90.46747 | 37992 ft | 424 kts | 268° |
| 2026-05-04 04:32 | 20.82068 | -90.53006 | 37994 ft | 424 kts | 268° |
| 2026-05-04 04:33 | 20.81950 | -90.59251 | 37993 ft | 424 kts | 268° |
| 2026-05-04 04:33 | 20.81831 | -90.65505 | 37991 ft | 425 kts | 268° |
| 2026-05-04 04:34 | 20.81709 | -90.71793 | 37993 ft | 425 kts | 267° |
| 2026-05-04 04:34 | 20.81583 | -90.78059 | 37993 ft | 424 kts | 267° |
| 2026-05-04 04:35 | 20.81455 | -90.84330 | 37992 ft | 424 kts | 268° |
| 2026-05-04 04:35 | 20.81327 | -90.90605 | 37996 ft | 425 kts | 267° |
| 2026-05-04 04:36 | 20.81197 | -90.96859 | 37990 ft | 425 kts | 267° |
| 2026-05-04 04:36 | 20.81062 | -91.03148 | 37987 ft | 425 kts | 268° |
| 2026-05-04 04:37 | 20.80791 | -91.15712 | 37994 ft | 425 kts | 267° |
| 2026-05-04 04:38 | 20.80649 | -91.22018 | 37991 ft | 427 kts | 267° |
| 2026-05-04 04:38 | 20.80505 | -91.28278 | 37997 ft | 426 kts | 268° |
| 2026-05-04 04:39 | 20.80354 | -91.34589 | 37987 ft | 425 kts | 268° |
| 2026-05-04 04:39 | 20.80206 | -91.40864 | 37993 ft | 426 kts | 268° |
| 2026-05-04 04:40 | 20.80053 | -91.47172 | 37987 ft | 425 kts | 267° |
| 2026-05-04 04:40 | 20.79899 | -91.53456 | 37989 ft | 426 kts | 268° |
| 2026-05-04 04:41 | 20.79742 | -91.59739 | 37994 ft | 425 kts | 268° |
| 2026-05-04 04:41 | 20.79584 | -91.65966 | 37992 ft | 424 kts | 267° |
| 2026-05-04 04:42 | 20.79424 | -91.72266 | 37992 ft | 423 kts | 267° |
| 2026-05-04 04:42 | 20.79265 | -91.78504 | 37989 ft | 425 kts | 267° |
| 2026-05-04 04:43 | 20.79099 | -91.84761 | 37993 ft | 424 kts | 267° |
| 2026-05-04 04:43 | 20.78930 | -91.91043 | 37992 ft | 422 kts | 267° |
| 2026-05-04 04:44 | 20.78763 | -91.97289 | 37992 ft | 423 kts | 267° |
| 2026-05-04 04:44 | 20.78593 | -92.03541 | 37997 ft | 426 kts | 268° |
| 2026-05-04 04:45 | 20.78419 | -92.09815 | 37996 ft | 424 kts | 267° |
| 2026-05-04 04:47 | 20.77790 | -92.31845 | 38006 ft | 425 kts | 267° |
| 2026-05-04 04:47 | 20.77608 | -92.38153 | 38003 ft | 425 kts | 268° |
| 2026-05-04 04:48 | 20.77419 | -92.44416 | 38007 ft | 426 kts | 268° |
| 2026-05-04 04:49 | 20.76943 | -92.60138 | 38009 ft | 426 kts | 268° |
| 2026-05-04 04:49 | 20.76749 | -92.66400 | 38018 ft | 426 kts | 267° |
| 2026-05-04 04:50 | 20.76552 | -92.72691 | 38018 ft | 426 kts | 267° |
| 2026-05-04 04:50 | 20.76356 | -92.78939 | 38027 ft | 426 kts | 268° |
| 2026-05-04 04:51 | 20.76156 | -92.85236 | 38022 ft | 426 kts | 268° |
| 2026-05-04 04:51 | 20.75953 | -92.91509 | 38020 ft | 427 kts | 267° |
| 2026-05-04 04:52 | 20.75747 | -92.97801 | 38024 ft | 426 kts | 267° |
| 2026-05-04 04:52 | 20.75536 | -93.04079 | 38024 ft | 426 kts | 268° |
| 2026-05-04 04:53 | 20.75326 | -93.10400 | 38023 ft | 426 kts | 267° |
| 2026-05-04 04:53 | 20.75115 | -93.16676 | 38026 ft | 427 kts | 268° |
| 2026-05-04 04:54 | 20.74898 | -93.23010 | 38025 ft | 428 kts | 268° |
| 2026-05-04 04:54 | 20.74682 | -93.29355 | 38026 ft | 429 kts | 267° |
| 2026-05-04 04:55 | 20.74460 | -93.35689 | 38024 ft | 426 kts | 268° |
| 2026-05-04 04:55 | 20.74300 | -93.41975 | 38016 ft | 428 kts | 269° |
| 2026-05-04 04:56 | 20.74327 | -93.48255 | 38018 ft | 426 kts | 269° |
| 2026-05-04 04:56 | 20.74355 | -93.54500 | 38018 ft | 426 kts | 270° |
| 2026-05-04 04:57 | 20.74388 | -93.60809 | 38020 ft | 427 kts | 270° |
| 2026-05-04 04:57 | 20.74417 | -93.67094 | 38021 ft | 427 kts | 269° |
| 2026-05-04 04:58 | 20.74442 | -93.73406 | 38024 ft | 427 kts | 269° |
| 2026-05-04 04:58 | 20.74464 | -93.79708 | 38025 ft | 427 kts | 269° |
| 2026-05-04 04:59 | 20.74485 | -93.86002 | 38025 ft | 427 kts | 270° |
| 2026-05-04 04:59 | 20.74505 | -93.92324 | 38027 ft | 428 kts | 269° |
| 2026-05-04 05:00 | 20.74525 | -93.98605 | 38026 ft | 428 kts | 269° |
| 2026-05-04 05:01 | 20.74542 | -94.08099 | 38030 ft | 426 kts | 270° |
| 2026-05-04 05:01 | 20.74553 | -94.14347 | 38029 ft | 427 kts | 269° |
| 2026-05-04 05:02 | 20.74562 | -94.20682 | 38030 ft | 428 kts | 270° |
| 2026-05-04 05:02 | 20.74568 | -94.26981 | 38030 ft | 427 kts | 270° |
| 2026-05-04 05:03 | 20.74572 | -94.33304 | 38032 ft | 428 kts | 270° |
| 2026-05-04 05:04 | 20.74575 | -94.45893 | 38030 ft | 428 kts | 269° |
| 2026-05-04 05:04 | 20.74572 | -94.52213 | 38031 ft | 429 kts | 270° |
| 2026-05-04 05:06 | 20.74540 | -94.77604 | 38033 ft | 430 kts | 270° |
| 2026-05-04 05:07 | 20.74528 | -94.83935 | 38032 ft | 430 kts | 270° |
| 2026-05-04 05:07 | 20.74513 | -94.90300 | 38035 ft | 429 kts | 270° |
| 2026-05-04 05:09 | 20.71041 | -95.18599 | 38033 ft | 430 kts | 260° |
| 2026-05-04 05:10 | 20.69884 | -95.24859 | 38032 ft | 431 kts | 259° |
| 2026-05-04 05:10 | 20.68728 | -95.31104 | 38034 ft | 431 kts | 259° |
| 2026-05-04 05:11 | 20.67566 | -95.37374 | 38033 ft | 431 kts | 259° |
| 2026-05-04 05:11 | 20.66409 | -95.43602 | 38033 ft | 432 kts | 259° |
| 2026-05-04 05:12 | 20.65238 | -95.49890 | 38033 ft | 432 kts | 259° |
| 2026-05-04 05:12 | 20.64072 | -95.56132 | 38033 ft | 432 kts | 260° |
| 2026-05-04 05:13 | 20.62902 | -95.62402 | 38033 ft | 432 kts | 260° |
| 2026-05-04 05:13 | 20.61733 | -95.68644 | 38034 ft | 432 kts | 259° |
| 2026-05-04 05:14 | 20.60551 | -95.74940 | 38035 ft | 433 kts | 259° |
| 2026-05-04 05:14 | 20.59379 | -95.81175 | 38038 ft | 433 kts | 259° |
| 2026-05-04 05:15 | 20.58196 | -95.87449 | 38041 ft | 433 kts | 259° |
| 2026-05-04 05:15 | 20.57015 | -95.93705 | 38038 ft | 433 kts | 259° |
| 2026-05-04 05:16 | 20.55828 | -95.99989 | 38040 ft | 433 kts | 259° |
| 2026-05-04 05:16 | 20.54646 | -96.06234 | 38042 ft | 434 kts | 259° |
| 2026-05-04 05:17 | 20.53451 | -96.12524 | 38043 ft | 434 kts | 259° |
| 2026-05-04 05:17 | 20.52256 | -96.18792 | 38049 ft | 435 kts | 259° |
| 2026-05-04 05:18 | 20.51045 | -96.25096 | 38053 ft | 435 kts | 259° |
| 2026-05-04 05:18 | 20.49838 | -96.31395 | 38053 ft | 435 kts | 259° |
| 2026-05-04 05:19 | 20.48638 | -96.37647 | 38054 ft | 434 kts | 259° |
| 2026-05-04 05:19 | 20.47430 | -96.43930 | 38060 ft | 436 kts | 259° |
| 2026-05-04 05:20 | 20.46223 | -96.50208 | 38060 ft | 436 kts | 259° |
| 2026-05-04 05:20 | 20.45014 | -96.56472 | 38066 ft | 436 kts | 259° |
| 2026-05-04 05:21 | 20.43794 | -96.62782 | 38070 ft | 436 kts | 259° |
| 2026-05-04 05:21 | 20.42573 | -96.69093 | 38071 ft | 436 kts | 259° |
| 2026-05-04 05:22 | 20.41358 | -96.75373 | 38075 ft | 437 kts | 259° |
| 2026-05-04 05:22 | 20.40124 | -96.81715 | 38074 ft | 437 kts | 259° |
| 2026-05-04 05:23 | 20.38670 | -96.87978 | 38078 ft | 439 kts | 255° |
| 2026-05-04 05:23 | 20.36939 | -96.94224 | 38086 ft | 439 kts | 255° |
| 2026-05-04 05:24 | 20.35209 | -97.00450 | 38089 ft | 440 kts | 255° |
| 2026-05-04 05:24 | 20.33483 | -97.06663 | 37972 ft | 440 kts | 255° |
| 2026-05-04 05:25 | 20.32622 | -97.09753 | 37670 ft | 437 kts | 255° |
| 2026-05-04 05:25 | 20.31750 | -97.12888 | 37368 ft | 434 kts | 255° |
| 2026-05-04 05:25 | 20.30900 | -97.15940 | 37071 ft | 432 kts | 256° |
| 2026-05-04 05:25 | 20.30055 | -97.18972 | 36777 ft | 431 kts | 255° |
| 2026-05-04 05:26 | 20.29206 | -97.22025 | 36483 ft | 432 kts | 256° |
| 2026-05-04 05:26 | 20.28346 | -97.25112 | 36185 ft | 433 kts | 256° |
| 2026-05-04 05:26 | 20.27485 | -97.28193 | 35888 ft | 434 kts | 256° |
| 2026-05-04 05:26 | 20.26628 | -97.31268 | 35594 ft | 435 kts | 256° |
| 2026-05-04 05:27 | 20.25759 | -97.34375 | 35295 ft | 436 kts | 256° |
| 2026-05-04 05:28 | 20.19631 | -97.56248 | 33254 ft | 448 kts | 257° |
| 2026-05-04 05:29 | 20.18744 | -97.59404 | 32963 ft | 449 kts | 257° |
| 2026-05-04 05:29 | 20.17848 | -97.62598 | 32693 ft | 450 kts | 257° |
| 2026-05-04 05:29 | 20.16958 | -97.65763 | 32438 ft | 452 kts | 257° |
| 2026-05-04 05:29 | 20.16051 | -97.68993 | 32182 ft | 451 kts | 257° |
| 2026-05-04 05:31 | 20.09806 | -97.91074 | 30409 ft | 442 kts | 257° |
| 2026-05-04 05:31 | 20.08918 | -97.94206 | 30364 ft | 441 kts | 257° |
| 2026-05-04 05:32 | 20.07139 | -98.00485 | 30377 ft | 442 kts | 257° |
| 2026-05-04 05:33 | 20.04476 | -98.09872 | 30434 ft | 443 kts | 257° |
| 2026-05-04 05:33 | 20.02698 | -98.16121 | 30460 ft | 442 kts | 257° |
| 2026-05-04 05:34 | 20.01221 | -98.22445 | 30486 ft | 441 kts | 262° |
| 2026-05-04 05:34 | 19.99935 | -98.28825 | 30511 ft | 440 kts | 262° |
| 2026-05-04 05:35 | 19.98662 | -98.35157 | 30208 ft | 442 kts | 262° |
| 2026-05-04 05:35 | 19.98025 | -98.38321 | 29723 ft | 440 kts | 262° |
| 2026-05-04 05:35 | 19.97389 | -98.41470 | 29290 ft | 436 kts | 262° |
| 2026-05-04 05:35 | 19.96757 | -98.44595 | 28895 ft | 432 kts | 262° |
| 2026-05-04 05:36 | 19.96129 | -98.47694 | 28495 ft | 428 kts | 262° |
| 2026-05-04 05:36 | 19.95499 | -98.50802 | 28117 ft | 423 kts | 262° |
| 2026-05-04 05:36 | 19.94886 | -98.53834 | 27790 ft | 417 kts | 262° |
| 2026-05-04 05:36 | 19.94287 | -98.56780 | 27743 ft | 404 kts | 262° |
| 2026-05-04 05:37 | 19.93694 | -98.59686 | 27695 ft | 392 kts | 262° |
| 2026-05-04 05:37 | 19.93132 | -98.62453 | 27620 ft | 381 kts | 263° |
| 2026-05-04 05:37 | 19.92582 | -98.65167 | 27551 ft | 370 kts | 262° |
| 2026-05-04 05:38 | 19.91530 | -98.70319 | 27517 ft | 346 kts | 263° |
| 2026-05-04 05:38 | 19.91038 | -98.72764 | 27510 ft | 335 kts | 264° |
| 2026-05-04 05:38 | 19.90659 | -98.75167 | 27447 ft | 332 kts | 268° |
| 2026-05-04 05:38 | 19.90378 | -98.77650 | 27042 ft | 335 kts | 268° |
| 2026-05-04 05:39 | 19.90115 | -98.80107 | 26641 ft | 336 kts | 268° |
| 2026-05-04 05:39 | 19.89578 | -98.85025 | 25901 ft | 334 kts | 268° |
| 2026-05-04 05:39 | 19.89309 | -98.87460 | 25566 ft | 332 kts | 269° |
| 2026-05-04 05:40 | 19.89155 | -98.92275 | 24896 ft | 324 kts | 277° |
| 2026-05-04 05:40 | 19.89301 | -98.94647 | 24541 ft | 322 kts | 278° |
| 2026-05-04 05:40 | 19.89465 | -98.96995 | 24203 ft | 321 kts | 278° |
| 2026-05-04 05:41 | 19.89629 | -98.99368 | 23852 ft | 320 kts | 278° |
| 2026-05-04 05:41 | 19.89791 | -99.01712 | 23523 ft | 319 kts | 277° |
| 2026-05-04 05:41 | 19.89950 | -99.04048 | 23203 ft | 317 kts | 277° |
| 2026-05-04 05:41 | 19.90107 | -99.06355 | 22876 ft | 316 kts | 277° |
| 2026-05-04 05:42 | 19.90265 | -99.08694 | 22546 ft | 315 kts | 277° |
| 2026-05-04 05:42 | 19.90419 | -99.11014 | 22210 ft | 314 kts | 277° |
| 2026-05-04 05:42 | 19.90574 | -99.13328 | 21824 ft | 312 kts | 277° |
| 2026-05-04 05:42 | 19.90728 | -99.15614 | 21412 ft | 312 kts | 276° |
| 2026-05-04 05:43 | 19.90881 | -99.17905 | 20997 ft | 310 kts | 277° |
| 2026-05-04 05:43 | 19.91031 | -99.20174 | 20599 ft | 309 kts | 276° |
| 2026-05-04 05:43 | 19.91181 | -99.22436 | 20197 ft | 307 kts | 276° |
| 2026-05-04 05:45 | 19.86521 | -99.35480 | 17362 ft | 309 kts | 180° |
| 2026-05-04 05:45 | 19.84405 | -99.35156 | 17000 ft | 307 kts | 166° |
| 2026-05-04 05:47 | 19.70119 | -99.31531 | 14549 ft | 289 kts | 167° |
| 2026-05-04 05:47 | 19.68177 | -99.31065 | 14294 ft | 283 kts | 167° |
| 2026-05-04 05:47 | 19.66279 | -99.30609 | 14117 ft | 278 kts | 168° |
| 2026-05-04 05:48 | 19.64431 | -99.30167 | 14107 ft | 267 kts | 168° |
| 2026-05-04 05:48 | 19.62638 | -99.29738 | 14080 ft | 256 kts | 168° |
| 2026-05-04 05:48 | 19.60950 | -99.29330 | 14066 ft | 243 kts | 165° |
| 2026-05-04 05:48 | 19.59428 | -99.28721 | 14045 ft | 232 kts | 150° |
| 2026-05-04 05:49 | 19.58069 | -99.27787 | 13852 ft | 233 kts | 143° |
| 2026-05-04 05:49 | 19.56801 | -99.26781 | 13631 ft | 232 kts | 142° |
| 2026-05-04 05:49 | 19.55514 | -99.25742 | 13368 ft | 230 kts | 143° |
| 2026-05-04 05:49 | 19.54256 | -99.24741 | 13095 ft | 229 kts | 143° |
| 2026-05-04 05:51 | 19.43756 | -99.23352 | 11020 ft | 227 kts | 180° |
| 2026-05-04 05:51 | 19.42168 | -99.23321 | 10606 ft | 227 kts | 180° |
| 2026-05-04 05:52 | 19.40610 | -99.23286 | 10356 ft | 220 kts | 180° |
| 2026-05-04 05:52 | 19.39109 | -99.23249 | 10108 ft | 208 kts | 180° |
| 2026-05-04 05:52 | 19.37715 | -99.23202 | 9865 ft | 196 kts | 174° |
| 2026-05-04 05:52 | 19.36506 | -99.22673 | 9603 ft | 190 kts | 135° |
| 2026-05-04 05:53 | 19.35922 | -99.21448 | 9537 ft | 192 kts | 95° |
| 2026-05-04 05:54 | 19.39882 | -99.13634 | 8514 ft | 162 kts | 61° |
| 2026-05-04 05:55 | 19.40441 | -99.12632 | 8306 ft | 161 kts | 61° |
| 2026-05-04 05:55 | 19.41004 | -99.11626 | 8097 ft | 160 kts | 60° |
| 2026-05-04 05:55 | 19.41564 | -99.10625 | 7889 ft | 159 kts | 60° |
| 2026-05-04 05:55 | 19.42123 | -99.09626 | 7682 ft | 158 kts | 60° |
| 2026-05-04 05:56 | 19.42679 | -99.08639 | 7478 ft | 157 kts | 60° |
| 2026-05-04 05:56 | 19.43229 | -99.07663 | 7356 ft | 149 kts | 60° |
| 2026-05-04 05:56 | 19.43675 | -99.06854 | 7348 ft | 102 kts | 59° |
| 2026-05-04 05:56 | 19.43942 | -99.06374 | 7339 ft | 51 kts | 60° |
| 2026-05-04 05:57 | 19.44122 | -99.06212 | 7339 ft | 22 kts | 22° |
| 2026-05-04 05:57 | 19.44240 | -99.06172 | 7339 ft | 14 kts | 10° |
| 2026-05-04 05:57 | 19.44336 | -99.06164 | 7341 ft | 12 kts | 357° |
| 2026-05-04 05:57 | 19.44385 | -99.06200 | 7342 ft | 8 kts | 299° |
| 2026-05-04 05:58 | 19.44410 | -99.06255 | 7342 ft | 8 kts | 290° |
| 2026-05-04 05:58 | 19.44415 | -99.06310 | 7343 ft | 7 kts | 262° |
| 2026-05-04 05:58 | 19.44395 | -99.06368 | 7343 ft | 9 kts | 240° |
| 2026-05-04 05:58 | 19.44358 | -99.06435 | 7344 ft | 12 kts | 240° |
| 2026-05-04 05:59 | 19.44310 | -99.06521 | 7345 ft | 13 kts | 239° |
| 2026-05-04 05:59 | 19.44265 | -99.06600 | 7346 ft | 12 kts | 239° |
| 2026-05-04 05:59 | 19.44224 | -99.06673 | 7348 ft | 10 kts | 239° |
| 2026-05-04 05:59 | 19.44191 | -99.06731 | 7350 ft | 8 kts | 239° |
| 2026-05-04 06:00 | 19.44163 | -99.06780 | 7352 ft | 7 kts | 239° |
| 2026-05-04 06:00 | 19.44135 | -99.06830 | 7354 ft | 9 kts | 240° |
| 2026-05-04 06:00 | 19.44096 | -99.06902 | 7354 ft | 12 kts | 240° |
| 2026-05-04 06:00 | 19.44055 | -99.06977 | 7355 ft | 12 kts | 240° |
| 2026-05-04 06:01 | 19.44011 | -99.07057 | 7354 ft | 13 kts | 239° |
| 2026-05-04 06:01 | 19.43957 | -99.07149 | 7354 ft | 15 kts | 238° |
| 2026-05-04 06:03 | 19.43613 | -99.07802 | 7355 ft | 8 kts | 270° |
| 2026-05-04 06:03 | 19.43624 | -99.07855 | 7357 ft | 6 kts | 286° |
| 2026-05-04 06:05 | 19.43635 | -99.07885 | 7357 ft | 0 kts | 291° |